sensor_id;sensor_type;location;lat;lon;timestamp;pressure;altitude;pressure_sealevel;temperature;humidity
11085;BME280;5596;46.826;8.650;2022-09-09T00:01:43;96012.16;;;16.11;100.00
11085;BME280;5596;46.826;8.650;2022-09-09T00:04:20;96010.25;;;16.17;100.00
11085;BME280;5596;46.826;8.650;2022-09-09T00:06:59;96014.63;;;16.23;100.00
11085;BME280;5596;46.826;8.650;2022-09-09T00:09:31;96006.44;;;16.28;100.00
11085;BME280;5596;46.826;8.650;2022-09-09T00:12:04;96004.25;;;16.30;100.00
11085;BME280;5596;46.826;8.650;2022-09-09T00:14:42;96002.59;;;16.34;100.00
11085;BME280;5596;46.826;8.650;2022-09-09T00:17:16;96003.16;;;16.41;100.00
11085;BME280;5596;46.826;8.650;2022-09-09T00:19:51;96000.94;;;16.53;100.00
11085;BME280;5596;46.826;8.650;2022-09-09T00:22:23;95997.97;;;16.50;100.00
11085;BME280;5596;46.826;8.650;2022-09-09T00:24:52;95998.19;;;16.53;100.00
11085;BME280;5596;46.826;8.650;2022-09-09T00:27:25;96002.00;;;16.52;100.00
11085;BME280;5596;46.826;8.650;2022-09-09T00:29:59;96003.94;;;16.57;100.00
11085;BME280;5596;46.826;8.650;2022-09-09T00:32:30;96005.03;;;16.56;100.00
11085;BME280;5596;46.826;8.650;2022-09-09T00:35:04;96004.19;;;16.60;100.00
11085;BME280;5596;46.826;8.650;2022-09-09T00:37:42;96009.13;;;16.63;100.00
11085;BME280;5596;46.826;8.650;2022-09-09T00:40:21;96009.13;;;16.63;100.00
11085;BME280;5596;46.826;8.650;2022-09-09T00:42:58;96007.75;;;16.56;100.00
11085;BME280;5596;46.826;8.650;2022-09-09T00:45:54;96006.09;;;16.55;100.00
11085;BME280;5596;46.826;8.650;2022-09-09T00:48:30;96009.91;;;16.54;100.00
11085;BME280;5596;46.826;8.650;2022-09-09T00:51:08;96001.50;;;16.45;100.00
11085;BME280;5596;46.826;8.650;2022-09-09T00:54:00;96001.78;;;16.39;100.00
11085;BME280;5596;46.826;8.650;2022-09-09T00:56:37;95999.31;;;16.42;100.00
11085;BME280;5596;46.826;8.650;2022-09-09T00:59:28;95999.31;;;16.42;100.00
11085;BME280;5596;46.826;8.650;2022-09-09T01:02:09;95994.72;;;16.33;100.00
11085;BME280;5596;46.826;8.650;2022-09-09T01:04:40;95994.16;;;16.31;100.00
11085;BME280;5596;46.826;8.650;2022-09-09T01:07:12;95992.00;;;16.33;100.00
11085;BME280;5596;46.826;8.650;2022-09-09T01:09:51;95992.25;;;16.31;100.00
11085;BME280;5596;46.826;8.650;2022-09-09T01:12:26;95994.97;;;16.31;100.00
11085;BME280;5596;46.826;8.650;2022-09-09T01:15:03;95995.53;;;16.28;100.00
11085;BME280;5596;46.826;8.650;2022-09-09T01:17:53;95996.63;;;16.22;100.00
11085;BME280;5596;46.826;8.650;2022-09-09T01:20:26;95996.63;;;16.22;100.00
11085;BME280;5596;46.826;8.650;2022-09-09T01:23:16;95992.81;;;16.23;100.00
11085;BME280;5596;46.826;8.650;2022-09-09T01:26:15;95995.53;;;16.18;100.00
11085;BME280;5596;46.826;8.650;2022-09-09T01:28:47;95990.63;;;16.10;100.00
11085;BME280;5596;46.826;8.650;2022-09-09T01:31:18;95984.09;;;16.01;100.00
11085;BME280;5596;46.826;8.650;2022-09-09T01:33:47;95990.91;;;15.83;100.00
11085;BME280;5596;46.826;8.650;2022-09-09T01:36:20;95989.03;;;15.73;100.00
11085;BME280;5596;46.826;8.650;2022-09-09T01:38:51;95993.91;;;15.71;100.00
11085;BME280;5596;46.826;8.650;2022-09-09T01:41:20;95988.22;;;15.73;100.00
11085;BME280;5596;46.826;8.650;2022-09-09T01:44:08;95992.03;;;15.72;100.00
11085;BME280;5596;46.826;8.650;2022-09-09T01:46:38;95991.44;;;15.75;100.00
11085;BME280;5596;46.826;8.650;2022-09-09T01:49:10;95994.19;;;15.80;100.00
11085;BME280;5596;46.826;8.650;2022-09-09T01:51:39;95995.53;;;15.77;100.00
11085;BME280;5596;46.826;8.650;2022-09-09T01:54:10;95992.84;;;15.72;100.00
11085;BME280;5596;46.826;8.650;2022-09-09T01:56:47;95995.00;;;15.70;100.00
11085;BME280;5596;46.826;8.650;2022-09-09T02:02:18;95992.25;;;15.65;100.00
11085;BME280;5596;46.826;8.650;2022-09-09T02:05:11;95989.28;;;15.62;100.00
11085;BME280;5596;46.826;8.650;2022-09-09T02:07:42;95988.47;;;15.61;100.00
11085;BME280;5596;46.826;8.650;2022-09-09T02:10:25;95995.53;;;15.57;100.00
11085;BME280;5596;46.826;8.650;2022-09-09T02:13:10;95995.53;;;15.57;100.00
11085;BME280;5596;46.826;8.650;2022-09-09T02:15:44;96000.97;;;15.57;100.00
11085;BME280;5596;46.826;8.650;2022-09-09T02:18:15;96000.94;;;15.52;100.00
11085;BME280;5596;46.826;8.650;2022-09-09T02:20:46;96000.38;;;15.50;100.00
11085;BME280;5596;46.826;8.650;2022-09-09T02:23:15;96002.28;;;15.49;100.00
11085;BME280;5596;46.826;8.650;2022-09-09T02:25:45;96009.34;;;15.50;100.00
11085;BME280;5596;46.826;8.650;2022-09-09T02:28:22;96022.41;;;15.43;100.00
11085;BME280;5596;46.826;8.650;2022-09-09T02:30:51;96018.88;;;15.38;100.00
11085;BME280;5596;46.826;8.650;2022-09-09T02:33:24;96027.56;;;15.40;100.00
11085;BME280;5596;46.826;8.650;2022-09-09T02:35:55;96035.72;;;15.35;100.00
11085;BME280;5596;46.826;8.650;2022-09-09T02:38:32;96034.91;;;15.29;100.00
11085;BME280;5596;46.826;8.650;2022-09-09T02:41:08;96037.34;;;15.31;100.00
11085;BME280;5596;46.826;8.650;2022-09-09T02:43:38;96036.25;;;15.27;100.00
11085;BME280;5596;46.826;8.650;2022-09-09T02:49:01;96040.34;;;15.29;100.00
11085;BME280;5596;46.826;8.650;2022-09-09T02:51:40;96048.50;;;15.29;100.00
11085;BME280;5596;46.826;8.650;2022-09-09T02:54:16;96039.22;;;15.20;100.00
11085;BME280;5596;46.826;8.650;2022-09-09T02:56:51;96036.19;;;15.17;100.00
11085;BME280;5596;46.826;8.650;2022-09-09T02:59:25;96041.91;;;15.10;100.00
11085;BME280;5596;46.826;8.650;2022-09-09T03:01:53;96044.34;;;15.11;100.00
11085;BME280;5596;46.826;8.650;2022-09-09T03:04:21;96041.63;;;15.11;100.00
11085;BME280;5596;46.826;8.650;2022-09-09T03:06:50;96049.78;;;15.11;100.00
11085;BME280;5596;46.826;8.650;2022-09-09T03:09:19;96040.56;;;15.12;100.00
11085;BME280;5596;46.826;8.650;2022-09-09T03:11:47;96052.50;;;15.11;100.00
11085;BME280;5596;46.826;8.650;2022-09-09T03:14:16;96046.78;;;15.08;100.00
11085;BME280;5596;46.826;8.650;2022-09-09T03:16:48;96041.03;;;14.99;100.00
11085;BME280;5596;46.826;8.650;2022-09-09T03:19:15;96038.81;;;14.86;100.00
11085;BME280;5596;46.826;8.650;2022-09-09T03:21:44;96043.94;;;14.77;100.00
11085;BME280;5596;46.826;8.650;2022-09-09T03:24:11;96050.44;;;14.76;100.00
11085;BME280;5596;46.826;8.650;2022-09-09T03:26:38;96045.53;;;14.73;100.00
11085;BME280;5596;46.826;8.650;2022-09-09T03:29:08;96044.16;;;14.71;100.00
11085;BME280;5596;46.826;8.650;2022-09-09T03:31:36;96045.19;;;14.65;100.00
11085;BME280;5596;46.826;8.650;2022-09-09T03:34:05;96050.63;;;14.60;100.00
11085;BME280;5596;46.826;8.650;2022-09-09T03:36:33;96053.28;;;14.55;100.00
11085;BME280;5596;46.826;8.650;2022-09-09T03:39:00;96055.50;;;14.58;100.00
11085;BME280;5596;46.826;8.650;2022-09-09T03:41:30;96045.94;;;14.50;100.00
11085;BME280;5596;46.826;8.650;2022-09-09T03:43:59;96044.81;;;14.46;100.00
11085;BME280;5596;46.826;8.650;2022-09-09T03:46:29;96040.44;;;14.40;100.00
11085;BME280;5596;46.826;8.650;2022-09-09T03:48:58;96048.19;;;14.26;100.00
11085;BME280;5596;46.826;8.650;2022-09-09T03:51:27;96041.63;;;14.22;100.00
11085;BME280;5596;46.826;8.650;2022-09-09T03:53:54;96033.53;;;14.27;100.00
11085;BME280;5596;46.826;8.650;2022-09-09T03:56:24;96037.91;;;14.28;100.00
11085;BME280;5596;46.826;8.650;2022-09-09T03:58:56;96033.31;;;14.34;100.00
11085;BME280;5596;46.826;8.650;2022-09-09T04:01:27;96030.34;;;14.35;100.00
11085;BME280;5596;46.826;8.650;2022-09-09T04:03:54;96034.06;;;14.29;100.00
11085;BME280;5596;46.826;8.650;2022-09-09T04:06:24;96038.75;;;14.34;100.00
11085;BME280;5596;46.826;8.650;2022-09-09T04:08:53;96045.03;;;14.39;100.00
11085;BME280;5596;46.826;8.650;2022-09-09T04:11:21;96044.53;;;14.43;100.00
11085;BME280;5596;46.826;8.650;2022-09-09T04:13:51;96047.28;;;14.48;100.00
11085;BME280;5596;46.826;8.650;2022-09-09T04:16:18;96044.03;;;14.51;100.00
11085;BME280;5596;46.826;8.650;2022-09-09T04:18:46;96040.25;;;14.52;100.00
11085;BME280;5596;46.826;8.650;2022-09-09T04:21:16;96041.34;;;14.56;100.00
11085;BME280;5596;46.826;8.650;2022-09-09T04:23:43;96033.78;;;14.63;100.00
11085;BME280;5596;46.826;8.650;2022-09-09T04:26:11;96040.06;;;14.68;100.00
11085;BME280;5596;46.826;8.650;2022-09-09T04:28:39;96038.75;;;14.76;100.00
11085;BME280;5596;46.826;8.650;2022-09-09T04:31:15;96036.34;;;14.85;100.00
11085;BME280;5596;46.826;8.650;2022-09-09T04:33:44;96040.97;;;14.89;100.00
11085;BME280;5596;46.826;8.650;2022-09-09T04:36:12;96032.03;;;14.94;100.00
11085;BME280;5596;46.826;8.650;2022-09-09T04:38:39;96039.94;;;14.95;100.00
11085;BME280;5596;46.826;8.650;2022-09-09T04:41:06;96043.72;;;14.94;100.00
11085;BME280;5596;46.826;8.650;2022-09-09T04:43:39;96048.59;;;14.92;100.00
11085;BME280;5596;46.826;8.650;2022-09-09T04:46:08;96041.78;;;14.90;100.00
11085;BME280;5596;46.826;8.650;2022-09-09T04:48:35;96048.59;;;14.92;100.00
11085;BME280;5596;46.826;8.650;2022-09-09T04:51:06;96047.53;;;14.93;100.00
11085;BME280;5596;46.826;8.650;2022-09-09T04:53:34;96047.22;;;14.90;100.00
11085;BME280;5596;46.826;8.650;2022-09-09T04:56:02;96042.63;;;14.90;100.00
11085;BME280;5596;46.826;8.650;2022-09-09T04:58:32;96043.44;;;14.91;100.00
11085;BME280;5596;46.826;8.650;2022-09-09T05:01:05;96042.91;;;14.99;100.00
11085;BME280;5596;46.826;8.650;2022-09-09T05:03:33;96044.56;;;15.00;100.00
11085;BME280;5596;46.826;8.650;2022-09-09T05:06:05;96037.50;;;14.99;100.00
11085;BME280;5596;46.826;8.650;2022-09-09T05:08:36;96046.19;;;15.01;100.00
11085;BME280;5596;46.826;8.650;2022-09-09T05:11:13;96047.88;;;15.12;100.00
11085;BME280;5596;46.826;8.650;2022-09-09T05:13:41;96050.34;;;15.19;100.00
11085;BME280;5596;46.826;8.650;2022-09-09T05:16:09;96048.19;;;15.26;100.00
11085;BME280;5596;46.826;8.650;2022-09-09T05:18:37;96046.03;;;15.33;100.00
11085;BME280;5596;46.826;8.650;2022-09-09T05:21:05;96053.13;;;15.34;100.00
11085;BME280;5596;46.826;8.650;2022-09-09T05:23:33;96055.59;;;15.40;100.00
11085;BME280;5596;46.826;8.650;2022-09-09T05:26:01;96056.69;;;15.44;100.00
11085;BME280;5596;46.826;8.650;2022-09-09T05:28:29;96060.25;;;15.45;100.00
11085;BME280;5596;46.826;8.650;2022-09-09T05:30:57;96065.41;;;15.46;100.00
11085;BME280;5596;46.826;8.650;2022-09-09T05:33:28;96062.97;;;15.45;100.00
11085;BME280;5596;46.826;8.650;2022-09-09T05:35:57;96071.38;;;15.43;100.00
11085;BME280;5596;46.826;8.650;2022-09-09T05:38:25;96072.19;;;15.44;100.00
11085;BME280;5596;46.826;8.650;2022-09-09T05:40:53;96065.41;;;15.46;100.00
11085;BME280;5596;46.826;8.650;2022-09-09T05:43:21;96067.31;;;15.51;100.00
11085;BME280;5596;46.826;8.650;2022-09-09T05:45:58;96072.75;;;15.51;100.00
11085;BME280;5596;46.826;8.650;2022-09-09T05:48:29;96064.09;;;15.59;100.00
11085;BME280;5596;46.826;8.650;2022-09-09T05:50:56;96064.94;;;15.65;100.00
11085;BME280;5596;46.826;8.650;2022-09-09T05:53:23;96072.28;;;15.59;100.00
11085;BME280;5596;46.826;8.650;2022-09-09T05:55:57;96073.91;;;15.60;100.00
11085;BME280;5596;46.826;8.650;2022-09-09T05:58:26;96083.72;;;15.61;100.00
11085;BME280;5596;46.826;8.650;2022-09-09T06:01:00;96091.31;;;15.59;100.00
11085;BME280;5596;46.826;8.650;2022-09-09T06:03:29;96088.81;;;15.52;100.00
11085;BME280;5596;46.826;8.650;2022-09-09T06:06:00;96088.81;;;15.52;100.00
11085;BME280;5596;46.826;8.650;2022-09-09T06:08:27;96082.91;;;15.56;100.00
11085;BME280;5596;46.826;8.650;2022-09-09T06:11:01;96091.31;;;15.59;100.00
11085;BME280;5596;46.826;8.650;2022-09-09T06:13:30;96088.63;;;15.64;100.00
11085;BME280;5596;46.826;8.650;2022-09-09T06:15:58;96097.63;;;15.70;100.00
11085;BME280;5596;46.826;8.650;2022-09-09T06:18:26;96103.59;;;15.67;100.00
11085;BME280;5596;46.826;8.650;2022-09-09T06:21:00;96099.53;;;15.64;100.00
11085;BME280;5596;46.826;8.650;2022-09-09T06:23:30;96099.47;;;15.54;100.00
11085;BME280;5596;46.826;8.650;2022-09-09T06:26:02;96095.88;;;15.48;100.00
11085;BME280;5596;46.826;8.650;2022-09-09T06:28:32;96101.63;;;15.52;100.00
11085;BME280;5596;46.826;8.650;2022-09-09T06:30:59;96098.06;;;15.51;100.00
11085;BME280;5596;46.826;8.650;2022-09-09T06:33:31;96088.53;;;15.49;100.00
11085;BME280;5596;46.826;8.650;2022-09-09T06:36:03;96090.16;;;15.50;100.00
11085;BME280;5596;46.826;8.650;2022-09-09T06:38:31;96081.00;;;15.56;100.00
11085;BME280;5596;46.826;8.650;2022-09-09T06:40:59;96083.66;;;15.51;100.00
11085;BME280;5596;46.826;8.650;2022-09-09T06:43:28;96086.91;;;15.48;100.00
11085;BME280;5596;46.826;8.650;2022-09-09T06:45:57;96083.66;;;15.51;100.00
11085;BME280;5596;46.826;8.650;2022-09-09T06:48:24;96077.66;;;15.49;100.00
11085;BME280;5596;46.826;8.650;2022-09-09T06:51:02;96071.13;;;15.50;100.00
11085;BME280;5596;46.826;8.650;2022-09-09T06:53:30;96076.88;;;15.54;100.00
11085;BME280;5596;46.826;8.650;2022-09-09T06:55:59;96067.09;;;15.58;100.00
11085;BME280;5596;46.826;8.650;2022-09-09T06:58:28;96061.31;;;15.49;100.00
11085;BME280;5596;46.826;8.650;2022-09-09T07:01:04;96067.31;;;15.51;100.00
11085;BME280;5596;46.826;8.650;2022-09-09T07:03:32;96068.13;;;15.46;100.00
11085;BME280;5596;46.826;8.650;2022-09-09T07:06:02;96063.53;;;15.52;100.00
11085;BME280;5596;46.826;8.650;2022-09-09T07:08:30;96072.53;;;15.58;100.00
11085;BME280;5596;46.826;8.650;2022-09-09T07:11:02;96075.00;;;15.59;100.00
11085;BME280;5596;46.826;8.650;2022-09-09T07:13:34;96081.81;;;15.67;100.00
11085;BME280;5596;46.826;8.650;2022-09-09T07:16:04;96095.16;;;15.68;100.00
11085;BME280;5596;46.826;8.650;2022-09-09T07:18:32;96083.47;;;15.73;100.00
11085;BME280;5596;46.826;8.650;2022-09-09T07:21:02;96087.03;;;15.78;100.00
11085;BME280;5596;46.826;8.650;2022-09-09T07:23:30;96084.84;;;15.80;100.00
11085;BME280;5596;46.826;8.650;2022-09-09T07:25:58;96084.31;;;15.88;100.00
11085;BME280;5596;46.826;8.650;2022-09-09T07:28:26;96090.56;;;15.99;100.00
11085;BME280;5596;46.826;8.650;2022-09-09T07:30:55;96088.13;;;16.08;100.00
11085;BME280;5596;46.826;8.650;2022-09-09T07:33:24;96088.41;;;16.11;100.00
11085;BME280;5596;46.826;8.650;2022-09-09T07:35:52;96088.97;;;16.18;100.00
11085;BME280;5596;46.826;8.650;2022-09-09T07:38:21;96090.88;;;16.28;100.00
11085;BME280;5596;46.826;8.650;2022-09-09T07:40:48;96084.63;;;16.27;100.00
11085;BME280;5596;46.826;8.650;2022-09-09T07:43:16;96087.63;;;16.31;100.00
11085;BME280;5596;46.826;8.650;2022-09-09T07:45:44;96082.72;;;16.38;100.00
11085;BME280;5596;46.826;8.650;2022-09-09T07:48:13;96088.69;;;16.50;100.00
11085;BME280;5596;46.826;8.650;2022-09-09T07:50:40;96094.16;;;16.55;100.00
11085;BME280;5596;46.826;8.650;2022-09-09T07:53:07;96091.41;;;16.60;100.00
11085;BME280;5596;46.826;8.650;2022-09-09T07:55:36;96075.91;;;16.66;100.00
11085;BME280;5596;46.826;8.650;2022-09-09T07:58:03;96074.81;;;16.72;100.00
11085;BME280;5596;46.826;8.650;2022-09-09T08:00:30;96075.06;;;16.81;100.00
11085;BME280;5596;46.826;8.650;2022-09-09T08:02:59;96079.91;;;16.99;100.00
11085;BME280;5596;46.826;8.650;2022-09-09T08:05:27;96080.31;;;17.36;100.00
11085;BME280;5596;46.826;8.650;2022-09-09T08:07:55;96082.06;;;17.76;100.00
11085;BME280;5596;46.826;8.650;2022-09-09T08:10:22;96087.41;;;18.31;100.00
11085;BME280;5596;46.826;8.650;2022-09-09T08:12:52;96092.47;;;18.81;100.00
11085;BME280;5596;46.826;8.650;2022-09-09T08:15:20;96091.34;;;19.35;100.00
11085;BME280;5596;46.826;8.650;2022-09-09T08:17:47;96092.47;;;19.58;100.00
11085;BME280;5596;46.826;8.650;2022-09-09T08:20:14;96092.06;;;19.88;100.00
11085;BME280;5596;46.826;8.650;2022-09-09T08:22:42;96093.25;;;20.01;100.00
11085;BME280;5596;46.826;8.650;2022-09-09T08:25:09;96096.97;;;19.49;100.00
11085;BME280;5596;46.826;8.650;2022-09-09T08:27:37;96096.69;;;18.98;100.00
11085;BME280;5596;46.826;8.650;2022-09-09T08:30:08;96091.75;;;19.00;100.00
11085;BME280;5596;46.826;8.650;2022-09-09T08:32:36;96090.59;;;19.30;100.00
11085;BME280;5596;46.826;8.650;2022-09-09T08:35:03;96090.94;;;19.71;100.00
11085;BME280;5596;46.826;8.650;2022-09-09T08:37:31;96092.72;;;20.18;100.00
11085;BME280;5596;46.826;8.650;2022-09-09T08:39:58;96091.91;;;20.55;100.00
11085;BME280;5596;46.826;8.650;2022-09-09T08:42:36;96094.22;;;20.80;100.00
11085;BME280;5596;46.826;8.650;2022-09-09T08:45:30;96092.91;;;20.91;97.96
11085;BME280;5596;46.826;8.650;2022-09-09T08:48:17;96084.28;;;21.11;99.67
11085;BME280;5596;46.826;8.650;2022-09-09T08:50:50;96075.19;;;21.30;98.28
11085;BME280;5596;46.826;8.650;2022-09-09T08:53:27;96084.94;;;21.36;95.83
11085;BME280;5596;46.826;8.650;2022-09-09T08:55:58;96088.00;;;21.48;95.45
11085;BME280;5596;46.826;8.650;2022-09-09T08:58:48;96080.19;;;21.41;95.56
11085;BME280;5596;46.826;8.650;2022-09-09T09:01:42;96084.34;;;21.39;96.42
11085;BME280;5596;46.826;8.650;2022-09-09T09:04:30;96088.50;;;21.23;97.69
11085;BME280;5596;46.826;8.650;2022-09-09T09:07:09;96077.34;;;20.87;98.17
11085;BME280;5596;46.826;8.650;2022-09-09T09:09:46;96079.16;;;20.77;100.00
11085;BME280;5596;46.826;8.650;2022-09-09T09:12:20;96073.41;;;21.06;97.47
11085;BME280;5596;46.826;8.650;2022-09-09T09:14:49;96080.66;;;21.16;96.83
11085;BME280;5596;46.826;8.650;2022-09-09T09:17:21;96078.75;;;21.44;96.65
11085;BME280;5596;46.826;8.650;2022-09-09T09:19:50;96082.59;;;21.70;92.77
11085;BME280;5596;46.826;8.650;2022-09-09T09:22:19;96077.97;;;21.93;92.16
11085;BME280;5596;46.826;8.650;2022-09-09T09:24:52;96084.97;;;22.13;88.62
11085;BME280;5596;46.826;8.650;2022-09-09T09:27:31;96082.63;;;22.20;87.89
11085;BME280;5596;46.826;8.650;2022-09-09T09:30:01;96075.03;;;21.89;88.22
11085;BME280;5596;46.826;8.650;2022-09-09T09:32:34;96066.78;;;21.89;80.31
11085;BME280;5596;46.826;8.650;2022-09-09T09:35:09;96075.03;;;21.89;78.55
11085;BME280;5596;46.826;8.650;2022-09-09T09:37:40;96070.78;;;21.83;80.90
11085;BME280;5596;46.826;8.650;2022-09-09T09:40:11;96067.72;;;21.71;82.97
11085;BME280;5596;46.826;8.650;2022-09-09T09:42:48;96064.53;;;21.92;82.63
11085;BME280;5596;46.826;8.650;2022-09-09T09:45:26;96066.78;;;21.89;82.49
11085;BME280;5596;46.826;8.650;2022-09-09T09:48:03;96069.22;;;22.05;80.46
11085;BME280;5596;46.826;8.650;2022-09-09T09:50:32;96066.50;;;22.27;79.88
11085;BME280;5596;46.826;8.650;2022-09-09T09:53:03;96057.63;;;22.52;79.21
11085;BME280;5596;46.826;8.650;2022-09-09T09:55:35;96068.88;;;22.64;77.86
11085;BME280;5596;46.826;8.650;2022-09-09T09:58:05;96063.38;;;22.87;78.21
11085;BME280;5596;46.826;8.650;2022-09-09T10:00:33;96052.13;;;22.75;77.26
11085;BME280;5596;46.826;8.650;2022-09-09T10:03:21;96054.00;;;22.88;77.47
11085;BME280;5596;46.826;8.650;2022-09-09T10:05:50;96051.31;;;22.74;76.06
11085;BME280;5596;46.826;8.650;2022-09-09T10:08:18;96043.94;;;22.61;76.50
11085;BME280;5596;46.826;8.650;2022-09-09T10:10:52;96051.06;;;22.62;75.27
11085;BME280;5596;46.826;8.650;2022-09-09T10:13:28;96050.09;;;22.67;73.70
11085;BME280;5596;46.826;8.650;2022-09-09T10:16:13;96052.25;;;22.70;74.51
11085;BME280;5596;46.826;8.650;2022-09-09T10:18:57;96049.13;;;22.85;74.50
11085;BME280;5596;46.826;8.650;2022-09-09T10:21:41;96044.31;;;22.99;73.46
11085;BME280;5596;46.826;8.650;2022-09-09T10:27:07;96047.63;;;22.34;74.72
11085;BME280;5596;46.826;8.650;2022-09-09T10:29:57;96038.59;;;21.84;76.33
11085;BME280;5596;46.826;8.650;2022-09-09T10:32:38;96032.38;;;21.78;77.15
11085;BME280;5596;46.826;8.650;2022-09-09T10:35:14;96029.38;;;21.66;76.81
11085;BME280;5596;46.826;8.650;2022-09-09T10:38:10;96029.28;;;21.58;77.70
11085;BME280;5596;46.826;8.650;2022-09-09T10:40:43;96028.59;;;21.52;80.08
11085;BME280;5596;46.826;8.650;2022-09-09T10:43:28;96026.16;;;21.50;79.71
11085;BME280;5596;46.826;8.650;2022-09-09T10:46:04;96028.81;;;21.42;79.78
11085;BME280;5596;46.826;8.650;2022-09-09T10:48:52;96030.22;;;21.39;78.55
11085;BME280;5596;46.826;8.650;2022-09-09T10:51:30;96028.41;;;21.35;79.45
11085;BME280;5596;46.826;8.650;2022-09-09T10:54:10;96027.69;;;21.29;79.71
11085;BME280;5596;46.826;8.650;2022-09-09T10:56:41;96025.06;;;21.24;79.53
11085;BME280;5596;46.826;8.650;2022-09-09T10:59:13;96026.13;;;21.64;78.49
11085;BME280;5596;46.826;8.650;2022-09-09T11:01:45;96029.00;;;21.59;76.65
11085;BME280;5596;46.826;8.650;2022-09-09T11:04:19;96019.91;;;21.72;77.99
11085;BME280;5596;46.826;8.650;2022-09-09T11:06:52;96023.41;;;21.86;77.55
11085;BME280;5596;46.826;8.650;2022-09-09T11:09:23;96027.22;;;21.77;76.51
11085;BME280;5596;46.826;8.650;2022-09-09T11:11:53;96020.59;;;21.78;76.75
11085;BME280;5596;46.826;8.650;2022-09-09T11:14:25;96025.84;;;21.88;76.35
11085;BME280;5596;46.826;8.650;2022-09-09T11:16:57;96022.88;;;22.34;77.04
11085;BME280;5596;46.826;8.650;2022-09-09T11:19:29;96022.50;;;22.27;75.64
11085;BME280;5596;46.826;8.650;2022-09-09T11:22:02;96015.97;;;21.87;78.53
11085;BME280;5596;46.826;8.650;2022-09-09T11:24:36;96009.75;;;22.09;76.59
11085;BME280;5596;46.826;8.650;2022-09-09T11:27:10;96012.63;;;22.26;77.94
11085;BME280;5596;46.826;8.650;2022-09-09T11:30:02;96011.34;;;22.54;77.37
11085;BME280;5596;46.826;8.650;2022-09-09T11:32:48;96003.72;;;22.29;76.41
11085;BME280;5596;46.826;8.650;2022-09-09T11:35:30;96009.03;;;22.03;77.88
11085;BME280;5596;46.826;8.650;2022-09-09T11:38:16;96005.81;;;22.01;78.35
11085;BME280;5596;46.826;8.650;2022-09-09T11:40:45;96021.56;;;21.96;78.25
11085;BME280;5596;46.826;8.650;2022-09-09T11:43:16;96011.84;;;21.76;78.31
11085;BME280;5596;46.826;8.650;2022-09-09T11:45:51;96012.38;;;21.64;79.38
11085;BME280;5596;46.826;8.650;2022-09-09T11:48:28;96015.88;;;21.56;79.69
11085;BME280;5596;46.826;8.650;2022-09-09T11:51:05;96009.84;;;21.68;79.03
11085;BME280;5596;46.826;8.650;2022-09-09T11:53:35;96010.66;;;21.68;79.99
11085;BME280;5596;46.826;8.650;2022-09-09T11:56:06;96019.03;;;21.99;77.86
11085;BME280;5596;46.826;8.650;2022-09-09T11:58:39;96011.72;;;21.95;75.81
11085;BME280;5596;46.826;8.650;2022-09-09T12:01:15;96015.72;;;21.75;77.77
11085;BME280;5596;46.826;8.650;2022-09-09T12:03:45;96011.91;;;21.48;77.35
11085;BME280;5596;46.826;8.650;2022-09-09T12:06:18;96004.59;;;21.30;78.44
11085;BME280;5596;46.826;8.650;2022-09-09T12:08:50;95998.06;;;21.12;80.21
11085;BME280;5596;46.826;8.650;2022-09-09T12:11:26;96001.53;;;20.91;79.95
11085;BME280;5596;46.826;8.650;2022-09-09T12:13:55;95995.13;;;20.82;81.55
11085;BME280;5596;46.826;8.650;2022-09-09T12:16:31;96005.28;;;20.81;81.02
11085;BME280;5596;46.826;8.650;2022-09-09T12:19:12;96004.28;;;20.91;80.66
11085;BME280;5596;46.826;8.650;2022-09-09T12:21:46;96000.09;;;20.93;81.52
11085;BME280;5596;46.826;8.650;2022-09-09T12:24:23;96004.09;;;21.01;80.06
11085;BME280;5596;46.826;8.650;2022-09-09T12:26:59;96004.28;;;21.04;80.06
11085;BME280;5596;46.826;8.650;2022-09-09T12:29:39;96001.75;;;21.08;80.48
11085;BME280;5596;46.826;8.650;2022-09-09T12:32:11;95996.44;;;20.98;81.91
11085;BME280;5596;46.826;8.650;2022-09-09T12:34:40;96002.94;;;20.88;81.56
11085;BME280;5596;46.826;8.650;2022-09-09T12:37:18;96004.06;;;20.73;82.57
11085;BME280;5596;46.826;8.650;2022-09-09T12:39:54;96004.47;;;20.67;82.91
11085;BME280;5596;46.826;8.650;2022-09-09T12:42:22;96001.91;;;20.70;84.58
11085;BME280;5596;46.826;8.650;2022-09-09T12:44:54;96003.13;;;20.78;84.44
11085;BME280;5596;46.826;8.650;2022-09-09T12:47:25;96001.50;;;20.77;83.95
11085;BME280;5596;46.826;8.650;2022-09-09T12:49:56;96005.38;;;20.76;82.40
11085;BME280;5596;46.826;8.650;2022-09-09T12:52:26;96000.09;;;20.80;82.49
11085;BME280;5596;46.826;8.650;2022-09-09T12:54:58;96006.28;;;20.85;82.85
11085;BME280;5596;46.826;8.650;2022-09-09T12:57:31;96006.41;;;20.94;83.44
11085;BME280;5596;46.826;8.650;2022-09-09T13:00:06;96007.84;;;20.91;81.44
11085;BME280;5596;46.826;8.650;2022-09-09T13:02:45;95997.47;;;20.88;81.98
11085;BME280;5596;46.826;8.650;2022-09-09T13:05:15;95992.56;;;20.85;82.76
11085;BME280;5596;46.826;8.650;2022-09-09T13:07:43;95995.22;;;20.90;82.47
11085;BME280;5596;46.826;8.650;2022-09-09T13:10:13;95996.66;;;20.88;82.50
11085;BME280;5596;46.826;8.650;2022-09-09T13:12:42;95994.38;;;20.76;83.96
11085;BME280;5596;46.826;8.650;2022-09-09T13:15:16;95992.06;;;20.69;84.02
11085;BME280;5596;46.826;8.650;2022-09-09T13:17:51;95993.69;;;20.70;84.42
11085;BME280;5596;46.826;8.650;2022-09-09T13:20:20;95993.78;;;20.65;85.65
11085;BME280;5596;46.826;8.650;2022-09-09T13:22:49;95990.75;;;20.67;85.37
11085;BME280;5596;46.826;8.650;2022-09-09T13:25:22;95980.56;;;20.67;86.52
11085;BME280;5596;46.826;8.650;2022-09-09T13:27:53;95985.66;;;20.74;84.65
11085;BME280;5596;46.826;8.650;2022-09-09T13:30:23;95988.91;;;20.76;85.30
11085;BME280;5596;46.826;8.650;2022-09-09T13:33:02;95980.19;;;20.74;84.96
11085;BME280;5596;46.826;8.650;2022-09-09T13:35:29;95982.41;;;20.72;85.96
11085;BME280;5596;46.826;8.650;2022-09-09T13:37:57;95981.59;;;20.85;85.52
11085;BME280;5596;46.826;8.650;2022-09-09T13:40:27;95981.28;;;20.87;84.00
11085;BME280;5596;46.826;8.650;2022-09-09T13:42:56;95978.25;;;20.88;83.62